createdAt,value
2019-02-22T00:02:37.997Z,34.30
2019-02-22T00:05:07.038Z,35.30
2019-02-22T00:07:35.118Z,35.40
2019-02-22T00:10:03.549Z,33.33
2019-02-22T00:12:31.846Z,32.37
2019-02-22T00:15:00.838Z,34.17
2019-02-22T00:17:28.901Z,32.93
2019-02-22T00:19:57.028Z,27.20
2019-02-22T00:22:25.054Z,26.57
2019-02-22T00:24:52.843Z,29.63
2019-02-22T00:27:20.610Z,25.50
2019-02-22T00:29:48.430Z,27.40
2019-02-22T00:32:16.296Z,23.17
2019-02-22T00:34:44.590Z,26.20
2019-02-22T00:37:12.377Z,25.17
2019-02-22T00:39:40.328Z,25.07
2019-02-22T00:42:08.251Z,28.13
2019-02-22T00:44:36.201Z,24.00
2019-02-22T00:47:03.948Z,26.80
2019-02-22T00:49:31.694Z,24.57
2019-02-22T00:51:59.593Z,24.83
2019-02-22T00:54:27.360Z,24.03
2019-02-22T00:56:55.201Z,25.03
2019-02-22T00:59:23.076Z,23.43
2019-02-22T01:01:50.983Z,22.37
2019-02-22T01:04:18.755Z,22.43
2019-02-22T01:06:46.563Z,27.70
2019-02-22T01:09:14.530Z,24.33
2019-02-22T01:11:42.463Z,26.03
2019-02-22T01:14:10.214Z,27.97
2019-02-22T01:16:38.040Z,24.07
2019-02-22T01:19:05.905Z,25.47
2019-02-22T01:21:33.734Z,26.43
2019-02-22T01:24:01.510Z,23.40
2019-02-22T01:26:29.500Z,22.40
2019-02-22T01:28:57.228Z,22.03
2019-02-22T01:31:25.361Z,24.87
2019-02-22T01:33:54.205Z,24.13
2019-02-22T01:36:23.076Z,25.60
2019-02-22T01:38:50.921Z,21.47
2019-02-22T01:41:18.768Z,23.70
2019-02-22T01:43:46.536Z,24.17
2019-02-22T01:46:14.487Z,20.53
2019-02-22T01:48:42.333Z,22.10
2019-02-22T01:51:10.247Z,20.83
2019-02-22T01:53:41.988Z,23.53
2019-02-22T01:56:09.904Z,19.90
2019-02-22T01:58:48.005Z,20.40
2019-02-22T02:01:07.683Z,20.30
2019-02-22T02:03:35.430Z,16.80
2019-02-22T02:06:03.256Z,18.20
2019-02-22T02:08:31.070Z,18.47
2019-02-22T02:10:58.837Z,16.67
2019-02-22T02:13:26.726Z,16.97
2019-02-22T02:15:54.691Z,18.27
2019-02-22T02:18:23.008Z,16.70
2019-02-22T02:20:51.793Z,18.50
2019-02-22T02:23:19.740Z,16.67
2019-02-22T02:25:47.580Z,15.17
2019-02-22T02:28:15.554Z,15.53
2019-02-22T02:30:43.524Z,15.37
2019-02-22T02:33:11.363Z,17.37
2019-02-22T02:35:39.126Z,13.07
2019-02-22T02:38:07.009Z,13.13
2019-02-22T02:40:34.859Z,12.73
2019-02-22T02:43:02.845Z,14.43
2019-02-22T02:45:30.779Z,14.40
2019-02-22T02:47:58.683Z,12.73
2019-02-22T02:50:26.405Z,12.53
2019-02-22T02:52:54.330Z,16.33
2019-02-22T02:55:38.318Z,12.13
2019-02-22T02:58:06.232Z,11.27
2019-02-22T03:00:33.984Z,11.67
2019-02-22T03:03:01.897Z,14.47
2019-02-22T03:05:44.189Z,11.60
2019-02-22T03:08:12.194Z,12.20
2019-02-22T03:10:40.172Z,12.23
2019-02-22T03:13:08.114Z,8.67
2019-02-22T03:15:36.066Z,4.10
2019-02-22T03:18:03.910Z,3.40
2019-02-22T03:20:31.816Z,3.23
2019-02-22T03:22:59.563Z,2.87
2019-02-22T03:25:27.365Z,3.20
2019-02-22T03:27:55.314Z,3.33
2019-02-22T03:30:23.216Z,4.77
2019-02-22T03:32:50.954Z,3.13
2019-02-22T03:35:18.758Z,2.90
2019-02-22T03:37:46.504Z,3.57
2019-02-22T03:40:14.435Z,3.73
2019-02-22T03:42:42.216Z,3.93
2019-02-22T03:45:10.659Z,3.60
2019-02-22T03:47:38.489Z,6.13
2019-02-22T03:50:06.500Z,10.83
2019-02-22T03:52:42.031Z,7.00
2019-02-22T03:55:10.033Z,3.57
2019-02-22T03:57:37.896Z,2.80
2019-02-22T04:00:06.877Z,3.20
2019-02-22T04:02:34.721Z,4.80
2019-02-22T04:05:02.726Z,4.17
2019-02-22T04:07:30.582Z,3.73
2019-02-22T04:09:58.617Z,5.37
2019-02-22T04:12:26.358Z,7.73
2019-02-22T04:14:54.353Z,9.10
2019-02-22T04:17:22.319Z,7.47
2019-02-22T04:19:50.138Z,9.40
2019-02-22T04:22:18.007Z,8.27
2019-02-22T04:24:45.840Z,8.00
2019-02-22T04:27:13.720Z,8.23
2019-02-22T04:29:41.744Z,6.40
2019-02-22T04:32:09.625Z,7.60
2019-02-22T04:34:37.407Z,9.73
2019-02-22T04:37:05.439Z,8.67
2019-02-22T04:39:33.213Z,7.63
2019-02-22T04:42:01.047Z,8.33
2019-02-22T04:44:28.817Z,9.57
2019-02-22T04:46:56.749Z,7.57
2019-02-22T04:49:24.627Z,6.67
2019-02-22T04:51:52.571Z,6.28
2019-02-22T04:54:20.336Z,6.80
2019-02-22T04:56:48.179Z,7.70
2019-02-22T04:59:15.958Z,6.93
2019-02-22T05:01:43.800Z,5.77
2019-02-22T05:04:11.581Z,6.10
2019-02-22T05:06:39.395Z,7.20
2019-02-22T05:09:07.230Z,8.37
2019-02-22T05:11:35.137Z,6.10
2019-02-22T05:14:02.984Z,8.70
2019-02-22T05:16:30.800Z,5.73
2019-02-22T05:18:58.653Z,6.10
2019-02-22T05:21:26.479Z,6.40
2019-02-22T05:23:54.252Z,7.13
2019-02-22T05:26:22.187Z,7.25
2019-02-22T05:28:50.193Z,7.28
2019-02-22T05:31:23.560Z,6.80
2019-02-22T05:33:51.327Z,8.23
2019-02-22T05:36:20.082Z,7.93
2019-02-22T05:38:47.837Z,8.08
2019-02-22T05:41:15.750Z,7.25
2019-02-22T05:43:43.558Z,7.20
2019-02-22T05:46:11.379Z,8.88
2019-02-22T05:48:39.236Z,8.03
2019-02-22T05:51:07.174Z,8.23
2019-02-22T05:53:35.132Z,8.50
2019-02-22T05:56:03.099Z,9.85
2019-02-22T05:58:31.108Z,10.78
2019-02-22T06:00:59.071Z,10.10
2019-02-22T06:03:26.909Z,10.95
2019-02-22T06:05:54.680Z,10.58
2019-02-22T06:08:22.549Z,10.93
2019-02-22T06:10:50.292Z,12.05
2019-02-22T06:13:18.120Z,10.50
2019-02-22T06:15:46.688Z,10.80
2019-02-22T06:18:14.515Z,11.93
2019-02-22T06:20:42.506Z,11.03
2019-02-22T06:23:10.329Z,11.05
2019-02-22T06:25:38.080Z,10.15
2019-02-22T06:28:05.900Z,9.75
2019-02-22T06:30:33.775Z,7.95
2019-02-22T06:33:07.548Z,8.18
2019-02-22T06:35:35.333Z,8.83
2019-02-22T06:38:03.269Z,9.98
2019-02-22T06:40:31.044Z,7.45
2019-02-22T06:42:59.000Z,8.35
2019-02-22T06:45:26.758Z,8.48
2019-02-22T06:47:54.622Z,8.28
2019-02-22T06:50:33.397Z,9.98
2019-02-22T06:52:54.420Z,9.88
2019-02-22T06:55:22.276Z,9.15
2019-02-22T06:57:51.111Z,8.98
2019-02-22T07:00:19.557Z,9.33
2019-02-22T07:02:47.464Z,12.05
2019-02-22T07:05:15.321Z,7.83
2019-02-22T07:07:43.076Z,10.25
2019-02-22T07:10:10.906Z,9.65
2019-02-22T07:12:41.997Z,8.73
2019-02-22T07:15:09.978Z,12.55
2019-02-22T07:17:37.881Z,9.93
2019-02-22T07:20:07.446Z,9.23
2019-02-22T07:22:35.313Z,8.03
2019-02-22T07:25:03.404Z,7.22
2019-02-22T07:27:31.150Z,11.38
2019-02-22T07:29:58.974Z,8.98
2019-02-22T07:32:26.830Z,14.90
2019-02-22T07:34:54.644Z,8.20
2019-02-22T07:37:23.014Z,7.72
2019-02-22T07:39:51.023Z,9.55
2019-02-22T07:42:18.972Z,8.25
2019-02-22T07:44:47.591Z,10.53
2019-02-22T07:47:15.405Z,6.87
2019-02-22T07:49:43.335Z,9.73
2019-02-22T07:52:11.188Z,9.83
2019-02-22T07:54:39.115Z,7.62
2019-02-22T07:57:06.883Z,9.53
2019-02-22T07:59:34.807Z,8.25
2019-02-22T08:02:02.674Z,11.03
2019-02-22T08:04:30.464Z,11.18
2019-02-22T08:06:58.208Z,9.48
2019-02-22T08:09:26.039Z,9.38
2019-02-22T08:11:53.912Z,8.88
2019-02-22T08:14:21.965Z,11.78
2019-02-22T08:16:49.744Z,11.12
2019-02-22T08:19:17.645Z,10.10
2019-02-22T08:21:45.401Z,13.22
2019-02-22T08:24:13.181Z,10.05
2019-02-22T08:26:41.086Z,11.18
2019-02-22T08:29:09.054Z,8.38
2019-02-22T08:31:37.181Z,7.60
2019-02-22T08:34:05.026Z,10.23
2019-02-22T08:36:32.825Z,9.75
2019-02-22T08:39:00.598Z,10.20
2019-02-22T08:41:28.495Z,8.93
2019-02-22T08:43:56.434Z,7.40
2019-02-22T08:46:24.238Z,9.18
2019-02-22T08:48:53.404Z,8.18
2019-02-22T08:51:21.227Z,8.15
2019-02-22T08:53:49.069Z,10.23
2019-02-22T08:56:16.985Z,8.65
2019-02-22T08:58:44.750Z,9.60
2019-02-22T09:01:12.679Z,9.35
2019-02-22T09:03:49.934Z,12.30
2019-02-22T09:06:10.231Z,24.43
2019-02-22T09:08:49.703Z,20.32
2019-02-22T09:11:17.698Z,12.15
2019-02-22T09:13:45.473Z,13.22
2019-02-22T09:16:13.369Z,11.22
2019-02-22T09:18:41.134Z,13.22
2019-02-22T09:21:09.867Z,9.73
2019-02-22T09:23:37.642Z,11.50
2019-02-22T09:26:05.759Z,13.03
2019-02-22T09:28:33.797Z,12.20
2019-02-22T09:31:01.832Z,10.78
2019-02-22T09:33:29.671Z,10.90
2019-02-22T09:35:57.706Z,12.18
2019-02-22T09:38:25.591Z,7.42
2019-02-22T09:40:53.432Z,12.73
2019-02-22T09:43:21.480Z,14.53
2019-02-22T09:45:49.353Z,10.78
2019-02-22T09:48:17.980Z,8.03
2019-02-22T09:50:46.233Z,8.90
2019-02-22T09:53:14.167Z,6.42
2019-02-22T09:55:42.010Z,9.30
2019-02-22T09:58:09.823Z,8.83
2019-02-22T10:00:37.685Z,6.60
2019-02-22T10:03:05.490Z,10.43
2019-02-22T10:05:33.259Z,7.03
2019-02-22T10:08:01.081Z,4.53
2019-02-22T10:10:32.525Z,8.55
2019-02-22T10:13:01.257Z,7.10
2019-02-22T10:15:29.639Z,5.72
2019-02-22T10:17:57.472Z,8.18
2019-02-22T10:20:25.218Z,12.20
2019-02-22T10:22:53.037Z,5.15
2019-02-22T10:25:20.820Z,8.30
2019-02-22T10:27:48.648Z,9.68
2019-02-22T10:30:17.219Z,7.40
2019-02-22T10:32:45.462Z,7.90
2019-02-22T10:35:13.203Z,8.53
2019-02-22T10:37:41.184Z,6.75
2019-02-22T10:40:09.142Z,6.28
2019-02-22T10:42:36.947Z,5.25
2019-02-22T10:45:05.292Z,5.15
2019-02-22T10:47:33.226Z,8.80
2019-02-22T10:50:01.124Z,11.25
2019-02-22T10:52:28.926Z,7.35
2019-02-22T10:54:56.694Z,7.87
2019-02-22T10:57:24.511Z,14.00
2019-02-22T10:59:52.359Z,8.05
2019-02-22T11:02:20.126Z,7.53
2019-02-22T11:04:48.629Z,4.70
2019-02-22T11:07:16.369Z,5.45
2019-02-22T11:09:44.213Z,6.42
2019-02-22T11:12:12.791Z,7.45
2019-02-22T11:14:40.696Z,11.35
2019-02-22T11:17:08.582Z,3.30
2019-02-22T11:19:37.326Z,5.92
2019-02-22T11:22:05.073Z,7.62
2019-02-22T11:24:34.125Z,6.28
2019-02-22T11:27:01.992Z,15.43
2019-02-22T11:29:29.998Z,10.13
2019-02-22T11:31:57.845Z,8.88
2019-02-22T11:34:25.742Z,4.33
2019-02-22T11:36:53.719Z,7.12
2019-02-22T11:39:21.628Z,7.12
2019-02-22T11:41:49.510Z,4.80
2019-02-22T11:44:17.404Z,6.15
2019-02-22T11:46:45.147Z,5.95
2019-02-22T11:49:13.154Z,6.53
2019-02-22T11:51:41.101Z,6.58
2019-02-22T11:54:08.927Z,8.73
2019-02-22T11:56:36.884Z,5.58
2019-02-22T11:59:04.815Z,6.72
2019-02-22T12:01:32.703Z,6.08
2019-02-22T12:04:00.519Z,9.77
2019-02-22T12:06:28.308Z,7.93
2019-02-22T12:08:56.110Z,12.93
2019-02-22T12:11:24.000Z,10.48
2019-02-22T12:13:51.973Z,6.90
2019-02-22T12:16:19.755Z,10.80
2019-02-22T12:18:47.607Z,8.40
2019-02-22T12:21:15.545Z,7.30
2019-02-22T12:23:43.333Z,6.13
2019-02-22T12:26:11.131Z,9.03
2019-02-22T12:28:38.919Z,10.87
2019-02-22T12:31:07.364Z,7.93
2019-02-22T12:33:35.843Z,9.47
2019-02-22T12:36:03.877Z,5.47
2019-02-22T12:38:31.755Z,6.63
2019-02-22T12:40:59.672Z,5.23
2019-02-22T12:43:28.130Z,6.87
2019-02-22T12:45:58.547Z,6.10
2019-02-22T12:48:26.941Z,6.17
2019-02-22T12:50:54.851Z,7.53
2019-02-22T12:53:23.323Z,5.03
2019-02-22T12:55:51.254Z,5.80
2019-02-22T12:58:19.154Z,6.40
2019-02-22T13:00:47.085Z,6.47
2019-02-22T13:03:14.991Z,6.83
2019-02-22T13:05:44.129Z,5.37
2019-02-22T13:08:11.912Z,12.00
2019-02-22T13:10:39.760Z,6.47
2019-02-22T13:13:07.714Z,6.30
2019-02-22T13:15:35.714Z,7.20
2019-02-22T13:18:03.473Z,8.03
2019-02-22T13:20:31.492Z,9.00
2019-02-22T13:22:59.342Z,7.27
2019-02-22T13:25:27.282Z,8.40
2019-02-22T13:27:55.025Z,8.27
2019-02-22T13:30:23.063Z,7.47
2019-02-22T13:32:50.831Z,11.33
2019-02-22T13:35:18.753Z,10.33
2019-02-22T13:37:46.518Z,15.17
2019-02-22T13:40:14.436Z,15.43
2019-02-22T13:42:42.401Z,10.20
2019-02-22T13:45:10.714Z,12.70
2019-02-22T13:47:38.757Z,9.97
2019-02-22T13:50:09.873Z,8.77
2019-02-22T13:52:37.647Z,12.60
2019-02-22T13:55:05.965Z,12.10
2019-02-22T13:57:33.767Z,14.37
2019-02-22T14:00:01.641Z,9.20
2019-02-22T14:02:29.635Z,9.20
2019-02-22T14:04:57.382Z,14.37
2019-02-22T14:07:25.284Z,13.03
2019-02-22T14:09:53.069Z,9.70
2019-02-22T14:12:20.877Z,13.03
2019-02-22T14:14:49.407Z,13.87
2019-02-22T14:17:17.230Z,7.93
2019-02-22T14:19:44.992Z,8.43
2019-02-22T14:22:12.794Z,11.33
2019-02-22T14:24:41.073Z,8.73
2019-02-22T14:27:08.868Z,8.43
2019-02-22T14:29:36.630Z,14.47
2019-02-22T14:32:04.722Z,8.93
2019-02-22T14:34:32.470Z,9.77
2019-02-22T14:37:00.299Z,8.70
2019-02-22T14:39:28.067Z,11.57
2019-02-22T14:41:55.999Z,8.70
2019-02-22T14:44:23.960Z,11.20
2019-02-22T14:46:51.838Z,8.10
2019-02-22T14:49:19.587Z,8.63
2019-02-22T14:51:47.516Z,13.07
2019-02-22T14:54:15.385Z,9.83
2019-02-22T14:56:43.311Z,13.50
2019-02-22T14:59:11.197Z,10.10
2019-02-22T15:01:39.080Z,13.73
2019-02-22T15:04:06.917Z,10.77
2019-02-22T15:06:35.036Z,10.17
2019-02-22T15:09:04.649Z,14.00
2019-02-22T15:11:32.578Z,9.27
2019-02-22T15:14:00.356Z,10.27
2019-02-22T15:16:46.335Z,8.13
2019-02-22T15:19:15.340Z,12.80
2019-02-22T15:21:43.342Z,9.63
2019-02-22T15:24:11.215Z,7.03
2019-02-22T15:26:39.009Z,14.47
2019-02-22T15:29:06.883Z,17.47
2019-02-22T15:31:36.425Z,16.10
2019-02-22T15:34:04.573Z,51.63
2019-02-22T15:36:32.393Z,46.60
2019-02-22T15:39:00.136Z,24.30
2019-02-22T15:41:27.884Z,19.17
2019-02-22T15:43:55.746Z,12.10
2019-02-22T15:46:23.673Z,13.40
2019-02-22T15:48:51.476Z,22.17
2019-02-22T15:51:19.433Z,37.10
2019-02-22T15:53:47.390Z,30.27
2019-02-22T15:56:18.327Z,19.10
2019-02-22T15:58:45.826Z,21.00
2019-02-22T16:01:14.587Z,17.73
2019-02-22T16:04:04.039Z,21.77
2019-02-22T16:06:32.474Z,16.60
2019-02-22T16:09:01.038Z,17.43
2019-02-22T16:11:28.994Z,21.27
2019-02-22T16:13:56.901Z,19.80
2019-02-22T16:16:24.782Z,16.17
2019-02-22T16:18:53.209Z,22.73
2019-02-22T16:21:20.974Z,20.33
2019-02-22T16:23:49.819Z,29.03
2019-02-22T16:26:22.055Z,12.83
2019-02-22T16:28:49.874Z,13.67
2019-02-22T16:31:17.821Z,16.47
2019-02-22T16:33:45.759Z,16.00
2019-02-22T16:36:13.652Z,17.67
2019-02-22T16:38:41.498Z,21.53
2019-02-22T16:41:09.444Z,22.07
2019-02-22T16:43:37.278Z,19.17
2019-02-22T16:46:05.231Z,20.75
2019-02-22T16:48:33.160Z,22.60
2019-02-22T16:51:01.111Z,19.93
2019-02-22T16:53:28.950Z,17.43
2019-02-22T16:55:57.234Z,21.93
2019-02-22T16:58:25.067Z,26.77
2019-02-22T17:00:52.891Z,22.98
2019-02-22T17:03:20.907Z,38.73
2019-02-22T17:05:48.768Z,49.53
2019-02-22T17:08:16.692Z,37.40
2019-02-22T17:10:44.474Z,33.35
2019-02-22T17:13:12.291Z,28.60
2019-02-22T17:15:40.175Z,18.50
2019-02-22T17:18:08.706Z,14.55
2019-02-22T17:20:36.573Z,14.23
2019-02-22T17:23:04.400Z,18.87
2019-02-22T17:25:39.498Z,22.80
2019-02-22T17:28:07.426Z,56.45
2019-02-22T17:30:35.211Z,67.00
2019-02-22T17:33:03.114Z,42.25
2019-02-22T17:35:30.967Z,29.63
2019-02-22T17:37:58.765Z,21.57
2019-02-22T17:40:26.720Z,21.52
2019-02-22T17:42:54.937Z,22.70
2019-02-22T17:47:47.900Z,19.90
2019-02-22T17:50:15.829Z,29.65
2019-02-22T17:52:43.598Z,30.15
2019-02-22T17:55:11.540Z,22.00
2019-02-22T17:57:39.761Z,19.87
2019-02-22T18:00:11.394Z,18.48
2019-02-22T18:02:40.060Z,20.65
2019-02-22T18:05:08.101Z,28.90
2019-02-22T18:07:36.019Z,27.50
2019-02-22T18:10:04.169Z,30.23
2019-02-22T18:12:31.984Z,34.63
2019-02-22T18:14:59.837Z,35.73
2019-02-22T18:17:29.514Z,186.65
2019-02-22T18:19:57.336Z,202.90
2019-02-22T18:22:26.201Z,84.13
2019-02-22T18:24:54.840Z,24.60
2019-02-22T18:27:34.316Z,39.05
2019-02-22T18:29:59.885Z,56.18
2019-02-22T18:32:27.668Z,43.68
2019-02-22T18:34:55.495Z,61.88
2019-02-22T18:37:23.251Z,56.53
2019-02-22T18:39:51.089Z,37.98
2019-02-22T18:42:19.074Z,39.53
2019-02-22T18:44:46.906Z,35.23
2019-02-22T18:47:19.343Z,32.10
2019-02-22T18:49:44.567Z,39.03
2019-02-22T18:52:12.417Z,34.78
2019-02-22T18:54:40.749Z,31.07
2019-02-22T18:57:08.496Z,27.93
2019-02-22T18:59:36.312Z,40.10
2019-02-22T19:02:04.184Z,91.53
2019-02-22T19:04:32.023Z,170.12
2019-02-22T19:07:01.088Z,465.77
2019-02-22T19:09:28.892Z,500.18
2019-02-22T19:11:56.634Z,394.70
2019-02-22T19:14:24.585Z,414.57
2019-02-22T19:16:52.352Z,319.75
2019-02-22T19:19:20.294Z,283.90
2019-02-22T19:21:48.118Z,329.75
2019-02-22T19:24:16.966Z,346.52
2019-02-22T19:26:44.827Z,302.80
2019-02-22T19:29:12.675Z,198.40
2019-02-22T19:31:40.541Z,146.70
2019-02-22T19:34:08.354Z,94.28
2019-02-22T19:36:36.107Z,71.53
2019-02-22T19:39:04.960Z,52.58
2019-02-22T19:41:32.701Z,36.25
2019-02-22T19:44:00.477Z,35.48
2019-02-22T19:46:28.372Z,422.20
2019-02-22T19:48:56.297Z,477.13
2019-02-22T19:51:24.110Z,32.25
2019-02-22T19:53:52.007Z,21.68
2019-02-22T19:56:19.939Z,20.43
2019-02-22T19:58:47.792Z,19.10
2019-02-22T20:01:18.930Z,26.77
2019-02-22T20:03:47.090Z,33.18
2019-02-22T20:06:15.058Z,42.98
2019-02-22T20:08:42.797Z,55.03
2019-02-22T20:11:10.978Z,75.72
2019-02-22T20:13:38.847Z,329.60
2019-02-22T20:16:06.888Z,276.50
2019-02-22T20:18:35.147Z,165.47
2019-02-22T20:21:03.262Z,185.60
2019-02-22T20:23:31.038Z,121.07
2019-02-22T20:25:58.969Z,91.02
2019-02-22T20:28:26.733Z,123.10
2019-02-22T20:30:54.595Z,170.97
2019-02-22T20:33:22.523Z,187.77
2019-02-22T20:35:50.950Z,187.90
2019-02-22T20:38:18.878Z,130.00
2019-02-22T20:40:46.947Z,60.58
2019-02-22T20:43:15.056Z,57.88
2019-02-22T20:45:42.891Z,60.83
2019-02-22T20:48:11.298Z,74.95
2019-02-22T20:50:39.435Z,367.15
2019-02-22T20:53:07.462Z,409.55
2019-02-22T20:55:35.497Z,67.78
2019-02-22T20:58:03.365Z,63.75
2019-02-22T21:00:31.304Z,65.85
2019-02-22T21:03:01.720Z,63.80
2019-02-22T21:05:29.556Z,75.60
2019-02-22T21:07:57.347Z,73.20
2019-02-22T21:10:25.357Z,71.53
2019-02-22T21:12:53.279Z,69.27
2019-02-22T21:15:21.211Z,58.28
2019-02-22T21:17:49.049Z,45.60
2019-02-22T21:20:17.454Z,42.65
2019-02-22T21:22:45.442Z,83.67
2019-02-22T21:25:13.767Z,97.10
2019-02-22T21:27:41.724Z,86.22
2019-02-22T21:30:11.643Z,94.75
2019-02-22T21:32:39.527Z,69.27
2019-02-22T21:35:08.442Z,53.60
2019-02-22T21:37:36.554Z,48.23
2019-02-22T21:40:04.853Z,47.05
2019-02-22T21:42:32.920Z,42.13
2019-02-22T21:45:01.006Z,45.38
2019-02-22T21:47:29.216Z,43.15
2019-02-22T21:49:57.332Z,39.98
2019-02-22T21:52:25.593Z,44.33
2019-02-22T21:54:53.330Z,45.23
2019-02-22T21:57:21.401Z,44.18
2019-02-22T21:59:49.436Z,42.53
2019-02-22T22:02:17.297Z,56.68
2019-02-22T22:04:45.081Z,56.18
2019-02-22T22:07:13.185Z,63.80
2019-02-22T22:09:41.041Z,63.28
2019-02-22T22:12:08.968Z,58.33
2019-02-22T22:14:36.740Z,63.17
2019-02-22T22:17:04.760Z,68.22
2019-02-22T22:19:32.660Z,65.67
2019-02-22T22:22:00.582Z,61.28
2019-02-22T22:24:28.328Z,63.55
2019-02-22T22:26:56.563Z,67.72
2019-02-22T22:29:25.121Z,63.85
2019-02-22T22:31:53.062Z,56.90
2019-02-22T22:34:20.803Z,50.85
2019-02-22T22:36:51.460Z,53.25
2019-02-22T22:39:19.221Z,53.92
2019-02-22T22:41:47.146Z,49.93
2019-02-22T22:44:15.508Z,46.10
2019-02-22T22:46:43.553Z,46.73
2019-02-22T22:49:11.392Z,36.85
2019-02-22T22:51:39.811Z,33.88
2019-02-22T22:54:07.669Z,38.30
2019-02-22T22:56:35.473Z,44.75
2019-02-22T22:59:03.488Z,44.60
2019-02-22T23:01:33.341Z,38.73
2019-02-22T23:04:01.715Z,36.35
2019-02-22T23:06:30.842Z,31.33
2019-02-22T23:08:58.686Z,32.73
2019-02-22T23:11:26.486Z,38.85
2019-02-22T23:13:54.339Z,29.48
2019-02-22T23:16:22.189Z,31.10
2019-02-22T23:19:01.143Z,39.88
2019-02-22T23:21:20.444Z,40.08
2019-02-22T23:23:48.354Z,43.30
2019-02-22T23:26:16.301Z,40.58
2019-02-22T23:28:44.337Z,33.25
2019-02-22T23:31:12.414Z,37.63
2019-02-22T23:33:40.267Z,29.32
2019-02-22T23:36:08.109Z,257.77
2019-02-22T23:38:35.963Z,425.02
2019-02-22T23:41:03.750Z,476.75
2019-02-22T23:43:31.645Z,38.55
2019-02-22T23:45:59.727Z,37.45
2019-02-22T23:48:27.595Z,36.65
2019-02-22T23:50:55.543Z,34.92
2019-02-22T23:53:23.445Z,34.08
2019-02-22T23:55:51.191Z,31.52
2019-02-22T23:58:19.008Z,35.63
